createdAt,value
2022-10-13T00:01:57.305Z,3.57
2022-10-13T00:04:24.610Z,3.53
2022-10-13T00:06:52.140Z,3.33
2022-10-13T00:09:19.263Z,3.47
2022-10-13T00:11:46.326Z,3.53
2022-10-13T00:14:13.431Z,3.07
2022-10-13T00:16:40.717Z,3.50
2022-10-13T00:19:11.709Z,3.53
2022-10-13T00:21:41.387Z,3.50
2022-10-13T00:24:11.186Z,3.37
2022-10-13T00:26:38.646Z,3.27
2022-10-13T00:29:05.756Z,3.20
2022-10-13T00:31:33.161Z,3.30
2022-10-13T00:34:01.327Z,3.07
2022-10-13T00:36:28.849Z,3.30
2022-10-13T00:38:57.065Z,3.20
2022-10-13T00:41:24.171Z,3.30
2022-10-13T00:43:57.803Z,3.37
2022-10-13T00:46:26.751Z,3.00
2022-10-13T00:48:54.792Z,4.03
2022-10-13T00:51:24.733Z,3.40
2022-10-13T00:53:52.017Z,3.67
2022-10-13T00:56:20.371Z,3.67
2022-10-13T00:58:48.186Z,3.57
2022-10-13T01:01:15.463Z,3.60
2022-10-13T01:03:42.620Z,3.80
2022-10-13T01:06:09.830Z,3.87
2022-10-13T01:08:37.012Z,3.77
2022-10-13T01:11:04.120Z,4.17
2022-10-13T01:13:43.274Z,4.00
2022-10-13T01:16:15.620Z,4.00
2022-10-13T01:18:54.670Z,3.73
2022-10-13T01:21:21.701Z,4.20
2022-10-13T01:23:54.887Z,4.07
2022-10-13T01:26:25.046Z,4.13
2022-10-13T01:29:10.667Z,4.50
2022-10-13T01:31:42.558Z,4.20
2022-10-13T01:34:15.443Z,4.13
2022-10-13T01:36:57.988Z,4.20
2022-10-13T01:39:34.067Z,4.47
2022-10-13T01:42:22.576Z,4.60
2022-10-13T01:44:51.909Z,5.20
2022-10-13T01:47:19.751Z,4.60
2022-10-13T01:49:47.375Z,4.43
2022-10-13T01:52:17.624Z,4.63
2022-10-13T01:54:48.888Z,4.60
2022-10-13T01:57:34.747Z,4.50
2022-10-13T02:00:04.008Z,4.40
2022-10-13T02:02:49.879Z,4.50
2022-10-13T02:05:35.989Z,4.47
2022-10-13T02:08:15.281Z,4.60
2022-10-13T02:10:59.604Z,4.47
2022-10-13T02:13:28.438Z,4.30
2022-10-13T02:15:57.534Z,4.20
2022-10-13T02:18:27.512Z,4.30
2022-10-13T02:20:55.172Z,4.33
2022-10-13T02:23:22.402Z,5.37
2022-10-13T02:25:50.986Z,4.00
2022-10-13T02:28:18.810Z,4.33
2022-10-13T02:30:46.779Z,4.40
2022-10-13T02:33:14.703Z,5.00
2022-10-13T02:35:42.436Z,4.53
2022-10-13T02:38:10.483Z,4.30
2022-10-13T02:40:37.990Z,4.73
2022-10-13T02:43:05.095Z,4.33
2022-10-13T02:45:32.260Z,4.63
2022-10-13T02:47:59.325Z,4.00
2022-10-13T02:50:26.410Z,4.43
2022-10-13T02:52:53.526Z,3.77
2022-10-13T02:55:20.582Z,4.20
2022-10-13T02:57:47.636Z,4.10
2022-10-13T03:00:15.317Z,4.17
2022-10-13T03:02:42.679Z,3.80
2022-10-13T03:05:10.223Z,4.20
2022-10-13T03:07:37.346Z,4.53
2022-10-13T03:10:05.153Z,4.10
2022-10-13T03:12:32.287Z,3.83
2022-10-13T03:14:59.395Z,4.53
2022-10-13T03:17:27.049Z,4.00
2022-10-13T03:19:54.452Z,3.97
2022-10-13T03:22:22.007Z,3.90
2022-10-13T03:24:49.354Z,4.20
2022-10-13T03:27:16.445Z,4.07
2022-10-13T03:29:43.624Z,4.00
2022-10-13T03:32:10.877Z,3.90
2022-10-13T03:34:37.933Z,4.67
2022-10-13T03:37:06.265Z,4.10
2022-10-13T03:39:33.331Z,4.47
2022-10-13T03:42:00.430Z,3.87
2022-10-13T03:44:27.588Z,3.93
2022-10-13T03:46:54.672Z,4.30
2022-10-13T03:49:21.780Z,4.00
2022-10-13T03:51:48.886Z,4.07
2022-10-13T03:54:16.128Z,4.00
2022-10-13T03:56:43.371Z,3.93
2022-10-13T03:59:12.121Z,3.77
2022-10-13T04:01:39.967Z,3.90
2022-10-13T04:04:09.122Z,3.43
2022-10-13T04:06:36.183Z,4.00
2022-10-13T04:09:03.798Z,4.00
2022-10-13T04:11:30.869Z,3.87
2022-10-13T04:13:58.343Z,4.23
2022-10-13T04:16:26.592Z,3.77
2022-10-13T04:18:58.003Z,4.00
2022-10-13T04:21:25.639Z,4.33
2022-10-13T04:23:54.794Z,3.93
2022-10-13T04:26:22.989Z,4.17
2022-10-13T04:28:50.870Z,4.20
2022-10-13T04:31:18.473Z,4.10
2022-10-13T04:33:45.817Z,3.97
2022-10-13T04:36:13.918Z,4.20
2022-10-13T04:38:41.280Z,3.97
2022-10-13T04:41:09.102Z,4.60
2022-10-13T04:43:36.167Z,4.80
2022-10-13T04:46:04.307Z,5.03
2022-10-13T04:48:31.626Z,4.17
2022-10-13T04:50:59.447Z,4.57
2022-10-13T04:53:29.254Z,4.40
2022-10-13T04:55:57.024Z,5.13
2022-10-13T04:58:24.151Z,4.00
2022-10-13T05:00:51.438Z,4.23
2022-10-13T05:03:18.766Z,4.20
2022-10-13T05:05:45.917Z,4.30
2022-10-13T05:08:13.066Z,4.60
2022-10-13T05:10:40.211Z,4.03
2022-10-13T05:13:07.324Z,4.00
2022-10-13T05:15:34.613Z,4.00
2022-10-13T05:18:01.726Z,4.50
2022-10-13T05:20:28.909Z,4.40
2022-10-13T05:22:55.985Z,4.30
2022-10-13T05:25:23.083Z,4.27
2022-10-13T05:27:50.151Z,4.67
2022-10-13T05:30:17.317Z,4.40
2022-10-13T05:32:44.411Z,4.23
2022-10-13T05:35:11.482Z,4.10
2022-10-13T05:37:38.562Z,4.10
2022-10-13T05:40:05.828Z,4.40
2022-10-13T05:42:32.891Z,4.50
2022-10-13T05:45:00.083Z,4.60
2022-10-13T05:47:28.232Z,4.20
2022-10-13T05:49:55.876Z,4.57
2022-10-13T05:52:23.914Z,4.50
2022-10-13T05:54:52.935Z,4.50
2022-10-13T05:57:46.208Z,4.57
2022-10-13T06:00:16.952Z,4.70
2022-10-13T06:02:48.751Z,4.17
2022-10-13T06:05:17.903Z,4.30
2022-10-13T06:07:45.925Z,4.80
2022-10-13T06:10:13.361Z,4.63
2022-10-13T06:12:40.465Z,4.67
2022-10-13T06:15:07.888Z,4.50
2022-10-13T06:17:38.610Z,4.67
2022-10-13T06:20:13.991Z,4.80
2022-10-13T06:22:41.064Z,4.30
2022-10-13T06:25:08.618Z,4.77
2022-10-13T06:27:35.722Z,4.90
2022-10-13T06:30:03.320Z,4.63
2022-10-13T06:32:30.539Z,4.17
2022-10-13T06:34:57.615Z,4.30
2022-10-13T06:37:27.276Z,4.27
2022-10-13T06:39:54.985Z,4.50
2022-10-13T06:42:22.459Z,4.10
2022-10-13T06:44:49.868Z,4.30
2022-10-13T06:47:16.941Z,4.17
2022-10-13T06:49:44.004Z,3.83
2022-10-13T06:52:11.082Z,3.97
2022-10-13T06:54:38.147Z,4.43
2022-10-13T06:57:06.789Z,4.10
2022-10-13T06:59:33.912Z,4.10
2022-10-13T07:02:01.046Z,4.00
2022-10-13T07:04:28.247Z,4.30
2022-10-13T07:06:55.394Z,3.53
2022-10-13T07:09:22.533Z,3.70
2022-10-13T07:11:50.275Z,4.07
2022-10-13T07:14:17.386Z,3.90
2022-10-13T07:16:44.459Z,3.83
2022-10-13T07:19:11.577Z,4.00
2022-10-13T07:21:38.749Z,3.67
2022-10-13T07:24:06.282Z,4.13
2022-10-13T07:26:33.989Z,3.60
2022-10-13T07:29:01.974Z,4.00
2022-10-13T07:31:29.104Z,3.40
2022-10-13T07:33:57.050Z,3.83
2022-10-13T07:36:24.159Z,3.37
2022-10-13T07:38:51.259Z,3.93
2022-10-13T07:41:18.366Z,4.30
2022-10-13T07:43:45.611Z,4.30
2022-10-13T07:46:13.581Z,4.13
2022-10-13T07:48:40.913Z,3.60
2022-10-13T07:51:09.854Z,3.90
2022-10-13T07:53:37.169Z,3.77
2022-10-13T07:56:05.379Z,4.13
2022-10-13T07:58:32.741Z,3.93
2022-10-13T08:01:00.889Z,4.23
2022-10-13T08:03:28.807Z,3.80
2022-10-13T08:05:56.137Z,3.93
2022-10-13T08:08:23.218Z,3.97
2022-10-13T08:10:50.351Z,3.87
2022-10-13T08:13:17.436Z,3.77
2022-10-13T08:15:45.218Z,4.13
2022-10-13T08:18:12.935Z,3.97
2022-10-13T08:20:43.982Z,4.30
2022-10-13T08:23:11.503Z,4.03
2022-10-13T08:25:39.105Z,3.90
2022-10-13T08:28:06.687Z,3.93
2022-10-13T08:30:34.054Z,4.33
2022-10-13T08:33:01.282Z,4.13
2022-10-13T08:35:32.636Z,4.03
2022-10-13T08:38:02.049Z,3.70
2022-10-13T08:40:29.235Z,3.50
2022-10-13T08:43:00.262Z,3.90
2022-10-13T08:45:45.647Z,3.70
2022-10-13T08:48:16.447Z,4.10
2022-10-13T08:50:45.015Z,3.67
2022-10-13T08:53:27.864Z,3.60
2022-10-13T08:55:57.314Z,3.60
2022-10-13T08:58:26.413Z,3.80
2022-10-13T09:01:05.987Z,4.00
2022-10-13T09:03:33.088Z,4.07
2022-10-13T09:06:00.143Z,3.70
2022-10-13T09:08:29.200Z,3.60
2022-10-13T09:10:56.304Z,3.20
2022-10-13T09:13:23.440Z,3.70
2022-10-13T09:15:50.812Z,4.10
2022-10-13T09:18:18.015Z,3.13
2022-10-13T09:20:45.094Z,3.60
2022-10-13T09:23:18.096Z,3.60
2022-10-13T09:25:48.263Z,3.20
2022-10-13T09:28:35.631Z,3.80
2022-10-13T09:31:17.165Z,3.50
2022-10-13T09:33:44.581Z,3.83
2022-10-13T09:36:12.677Z,3.10
2022-10-13T09:38:41.269Z,3.17
2022-10-13T09:41:21.605Z,3.60
2022-10-13T09:43:48.680Z,3.40
2022-10-13T09:46:18.791Z,3.70
2022-10-13T09:48:48.555Z,3.63
2022-10-13T09:51:47.951Z,3.33
2022-10-13T09:54:33.972Z,3.57
2022-10-13T09:57:04.534Z,3.37
2022-10-13T09:59:36.511Z,3.20
2022-10-13T10:02:18.093Z,2.83
2022-10-13T10:04:47.922Z,3.47
2022-10-13T10:07:20.485Z,3.17
2022-10-13T10:09:53.794Z,3.70
2022-10-13T10:12:27.546Z,3.37
2022-10-13T10:14:55.033Z,3.40
2022-10-13T10:17:22.524Z,3.27
2022-10-13T10:19:55.739Z,3.10
2022-10-13T10:22:48.715Z,3.33
2022-10-13T10:25:18.615Z,3.67
2022-10-13T10:27:48.755Z,3.43
2022-10-13T10:30:17.345Z,3.80
2022-10-13T10:32:53.129Z,3.70
2022-10-13T10:35:23.658Z,3.40
2022-10-13T10:37:54.578Z,3.70
2022-10-13T10:40:29.964Z,3.60
2022-10-13T10:43:32.654Z,3.53
2022-10-13T10:46:01.079Z,3.60
2022-10-13T10:48:36.651Z,3.87
2022-10-13T10:51:06.567Z,3.37
2022-10-13T10:53:52.571Z,3.50
2022-10-13T10:56:19.622Z,3.67
2022-10-13T10:58:55.828Z,3.63
2022-10-13T11:01:22.951Z,3.30
2022-10-13T11:04:05.393Z,3.77
2022-10-13T11:06:34.314Z,3.60
2022-10-13T11:09:01.783Z,3.90
2022-10-13T11:11:33.446Z,3.70
2022-10-13T11:14:08.137Z,3.53
2022-10-13T11:16:35.270Z,3.40
2022-10-13T11:19:08.692Z,3.90
2022-10-13T11:21:56.229Z,3.73
2022-10-13T11:24:30.047Z,3.80
2022-10-13T11:27:17.316Z,3.73
2022-10-13T11:29:44.604Z,4.00
2022-10-13T11:32:27.364Z,4.57
2022-10-13T11:35:17.763Z,4.07
2022-10-13T11:38:06.110Z,3.60
2022-10-13T11:40:53.034Z,3.67
2022-10-13T11:43:23.274Z,3.50
2022-10-13T11:45:58.332Z,3.90
2022-10-13T11:48:40.737Z,4.33
2022-10-13T11:51:20.874Z,3.73
2022-10-13T11:53:53.412Z,4.17
2022-10-13T11:56:32.875Z,4.10
2022-10-13T11:58:59.974Z,4.03
2022-10-13T12:01:27.084Z,4.40
2022-10-13T12:03:54.413Z,4.57
2022-10-13T12:06:21.469Z,4.23
2022-10-13T12:08:50.448Z,4.43
2022-10-13T12:11:28.618Z,4.27
2022-10-13T12:13:56.318Z,4.70
2022-10-13T12:16:23.525Z,4.93
2022-10-13T12:18:50.817Z,4.70
2022-10-13T12:21:22.542Z,4.40
2022-10-13T12:23:50.607Z,5.17
2022-10-13T12:26:19.368Z,5.03
2022-10-13T12:29:06.777Z,4.90
2022-10-13T12:31:44.783Z,4.20
2022-10-13T12:34:18.251Z,4.40
2022-10-13T12:36:46.161Z,4.70
2022-10-13T12:39:14.756Z,4.07
2022-10-13T12:41:43.703Z,4.50
2022-10-13T12:44:14.742Z,4.93
2022-10-13T12:46:43.591Z,4.80
2022-10-13T12:49:36.760Z,4.33
2022-10-13T12:52:09.798Z,4.20
2022-10-13T12:54:46.805Z,3.73
2022-10-13T12:57:19.380Z,4.33
2022-10-13T12:59:46.518Z,4.03
2022-10-13T13:02:26.099Z,4.60
2022-10-13T13:04:53.211Z,4.20
2022-10-13T13:07:29.147Z,4.70
2022-10-13T13:10:02.372Z,4.70
2022-10-13T13:12:30.423Z,4.30
2022-10-13T13:14:57.904Z,4.60
2022-10-13T13:17:52.893Z,5.03
2022-10-13T13:20:31.683Z,4.43
2022-10-13T13:22:59.259Z,4.40
2022-10-13T13:25:26.496Z,4.37
2022-10-13T13:27:53.979Z,4.80
2022-10-13T13:30:22.300Z,4.70
2022-10-13T13:32:49.961Z,4.40
2022-10-13T13:35:17.133Z,4.60
2022-10-13T13:37:49.566Z,4.53
2022-10-13T13:40:19.086Z,4.40
2022-10-13T13:42:46.278Z,4.43
2022-10-13T13:45:17.411Z,4.30
2022-10-13T13:47:44.913Z,4.03
2022-10-13T13:50:22.946Z,4.63
2022-10-13T13:52:50.048Z,4.50
2022-10-13T13:55:17.496Z,4.90
2022-10-13T13:57:44.936Z,4.40
2022-10-13T14:00:13.231Z,4.17
2022-10-13T14:02:40.723Z,4.57
2022-10-13T14:05:07.912Z,5.00
2022-10-13T14:07:35.109Z,4.37
2022-10-13T14:10:02.595Z,5.10
2022-10-13T14:12:30.866Z,5.20
2022-10-13T14:14:58.575Z,4.90
2022-10-13T14:17:26.330Z,4.80
2022-10-13T14:19:53.544Z,4.53
2022-10-13T14:22:21.398Z,5.23
2022-10-13T14:24:48.672Z,4.97
2022-10-13T14:27:15.813Z,5.00
2022-10-13T14:29:42.958Z,4.83
2022-10-13T14:32:10.037Z,4.93
2022-10-13T14:34:37.127Z,4.50
2022-10-13T14:37:04.244Z,4.67
2022-10-13T14:39:31.354Z,4.73
2022-10-13T14:41:58.504Z,4.90
2022-10-13T14:44:25.576Z,4.27
2022-10-13T14:46:52.690Z,4.33
2022-10-13T14:49:19.778Z,4.53
2022-10-13T14:51:46.880Z,4.43
2022-10-13T14:54:13.982Z,4.23
2022-10-13T14:56:41.124Z,4.60
2022-10-13T14:59:08.466Z,4.40
2022-10-13T15:01:35.698Z,5.10
2022-10-13T15:04:03.023Z,4.67
2022-10-13T15:06:30.246Z,5.00
2022-10-13T15:08:57.870Z,5.40
2022-10-13T15:11:25.738Z,5.07
2022-10-13T15:13:53.172Z,4.87
2022-10-13T15:16:21.305Z,4.60
2022-10-13T15:18:48.776Z,4.70
2022-10-13T15:21:16.384Z,5.00
2022-10-13T15:23:43.556Z,4.40
2022-10-13T15:26:11.129Z,5.10
2022-10-13T15:28:39.667Z,5.10
2022-10-13T15:31:07.437Z,4.63
2022-10-13T15:33:34.775Z,5.17
2022-10-13T15:36:01.931Z,5.10
2022-10-13T15:38:29.011Z,4.80
2022-10-13T15:40:59.725Z,5.10
2022-10-13T15:43:26.931Z,5.33
2022-10-13T15:45:55.479Z,5.50
2022-10-13T15:48:22.957Z,5.70
2022-10-13T15:50:50.084Z,5.73
2022-10-13T15:53:17.209Z,5.67
2022-10-13T15:55:44.467Z,4.73
2022-10-13T15:58:13.863Z,4.80
2022-10-13T16:00:41.477Z,6.17
2022-10-13T16:03:11.804Z,5.23
2022-10-13T16:05:41.442Z,5.00
2022-10-13T16:08:08.589Z,5.20
2022-10-13T16:10:35.657Z,5.40
2022-10-13T16:13:02.732Z,5.20
2022-10-13T16:15:30.433Z,5.37
2022-10-13T16:17:57.521Z,5.83
2022-10-13T16:20:24.643Z,5.40
2022-10-13T16:22:51.789Z,5.47
2022-10-13T16:25:18.866Z,6.50
2022-10-13T16:27:46.161Z,5.53
2022-10-13T16:30:13.458Z,5.37
2022-10-13T16:32:40.729Z,5.20
2022-10-13T16:35:08.252Z,5.20
2022-10-13T16:37:35.419Z,5.00
2022-10-13T16:40:02.511Z,5.00
2022-10-13T16:42:29.626Z,5.00
2022-10-13T16:44:57.017Z,5.83
2022-10-13T16:47:24.663Z,5.53
2022-10-13T16:49:52.263Z,5.70
2022-10-13T16:52:19.353Z,8.00
2022-10-13T16:54:47.088Z,6.07
2022-10-13T16:57:14.184Z,5.17
2022-10-13T16:59:41.601Z,5.80
2022-10-13T17:02:13.196Z,6.00
2022-10-13T17:04:40.336Z,6.33
2022-10-13T17:07:07.407Z,6.03
2022-10-13T17:09:34.533Z,6.10
2022-10-13T17:12:02.236Z,6.50
2022-10-13T17:14:29.324Z,5.50
2022-10-13T17:16:57.900Z,5.33
2022-10-13T17:19:25.397Z,6.30
2022-10-13T17:21:52.562Z,5.93
2022-10-13T17:24:20.042Z,5.40
2022-10-13T17:26:49.445Z,5.93
2022-10-13T17:29:16.725Z,5.07
2022-10-13T17:31:44.027Z,5.20
2022-10-13T17:34:11.108Z,5.03
2022-10-13T17:36:38.184Z,5.20
2022-10-13T17:39:06.452Z,4.57
2022-10-13T17:41:33.978Z,4.30
2022-10-13T17:44:01.404Z,4.37
2022-10-13T17:46:38.634Z,4.53
2022-10-13T17:49:06.546Z,4.30
2022-10-13T17:51:33.663Z,4.73
2022-10-13T17:54:01.146Z,4.47
2022-10-13T17:56:28.532Z,4.10
2022-10-13T17:58:55.686Z,4.33
2022-10-13T18:01:27.324Z,4.47
2022-10-13T18:03:55.878Z,4.00
2022-10-13T18:06:23.478Z,4.13
2022-10-13T18:08:50.771Z,4.40
2022-10-13T18:11:19.619Z,5.53
2022-10-13T18:13:47.078Z,5.07
2022-10-13T18:16:15.618Z,4.30
2022-10-13T18:18:46.654Z,4.27
2022-10-13T18:21:15.484Z,4.80
2022-10-13T18:23:42.852Z,4.23
2022-10-13T18:26:14.251Z,4.10
2022-10-13T18:28:43.658Z,4.40
2022-10-13T18:31:10.805Z,4.50
2022-10-13T18:33:37.925Z,4.43
2022-10-13T18:36:14.675Z,5.00
2022-10-13T18:38:41.807Z,4.73
2022-10-13T18:41:09.447Z,4.80
2022-10-13T18:43:36.575Z,4.83
2022-10-13T18:46:04.201Z,5.23
2022-10-13T18:48:31.871Z,5.00
2022-10-13T18:51:09.319Z,5.27
2022-10-13T18:53:37.247Z,4.87
2022-10-13T18:56:08.775Z,5.50
2022-10-13T18:58:35.886Z,5.60
2022-10-13T19:01:04.076Z,5.30
2022-10-13T19:03:32.587Z,5.63
2022-10-13T19:05:59.691Z,5.50
2022-10-13T19:08:27.556Z,6.37
2022-10-13T19:10:54.648Z,6.13
2022-10-13T19:13:21.780Z,6.30
2022-10-13T19:15:48.893Z,6.50
2022-10-13T19:18:15.995Z,6.13
2022-10-13T19:20:43.252Z,7.17
2022-10-13T19:23:15.695Z,7.07
2022-10-13T19:25:43.028Z,7.47
2022-10-13T19:28:10.424Z,7.03
2022-10-13T19:30:37.905Z,6.40
2022-10-13T19:33:05.235Z,6.53
2022-10-13T19:35:32.349Z,6.20
2022-10-13T19:37:59.406Z,6.43
2022-10-13T19:40:26.492Z,6.47
2022-10-13T19:42:53.565Z,6.43
2022-10-13T19:45:20.655Z,6.27
2022-10-13T19:47:47.722Z,6.70
2022-10-13T19:50:14.884Z,6.00
2022-10-13T19:52:42.227Z,6.57
2022-10-13T19:55:09.613Z,7.00
2022-10-13T19:57:36.699Z,7.00
2022-10-13T20:00:04.680Z,6.97
2022-10-13T20:02:31.836Z,7.03
2022-10-13T20:04:58.947Z,7.43
2022-10-13T20:07:26.011Z,7.17
2022-10-13T20:09:53.105Z,7.27
2022-10-13T20:12:20.167Z,6.80
2022-10-13T20:14:47.247Z,6.97
2022-10-13T20:17:14.326Z,7.00
2022-10-13T20:19:41.522Z,6.87
2022-10-13T20:22:08.625Z,7.23
2022-10-13T20:24:35.807Z,7.53
2022-10-13T20:27:02.880Z,7.37
2022-10-13T20:29:30.116Z,7.93
2022-10-13T20:31:57.209Z,7.77
2022-10-13T20:34:24.350Z,8.17
2022-10-13T20:36:51.478Z,8.67
2022-10-13T20:39:18.628Z,8.47
2022-10-13T20:41:45.832Z,8.57
2022-10-13T20:44:12.988Z,8.63
2022-10-13T20:46:40.045Z,8.83
2022-10-13T20:49:11.825Z,8.10
2022-10-13T20:51:40.011Z,7.83
2022-10-13T20:54:07.693Z,8.43
2022-10-13T20:56:35.654Z,9.40
2022-10-13T20:59:04.072Z,9.87
2022-10-13T21:01:31.294Z,8.77
2022-10-13T21:03:58.443Z,9.73
2022-10-13T21:06:26.318Z,9.47
2022-10-13T21:08:53.726Z,10.10
2022-10-13T21:11:22.002Z,10.73
2022-10-13T21:13:49.497Z,11.43
2022-10-13T21:16:20.952Z,10.57
2022-10-13T21:18:49.272Z,10.90
2022-10-13T21:21:26.924Z,11.33
2022-10-13T21:23:55.292Z,10.93
2022-10-13T21:26:23.227Z,11.47
2022-10-13T21:28:50.993Z,12.23
2022-10-13T21:31:19.387Z,11.63
2022-10-13T21:33:46.702Z,10.87
2022-10-13T21:36:15.022Z,11.17
2022-10-13T21:38:42.705Z,11.13
2022-10-13T21:41:10.676Z,10.80
2022-10-13T21:43:37.780Z,11.37
2022-10-13T21:46:09.041Z,10.57
2022-10-13T21:48:36.450Z,10.40
2022-10-13T21:51:14.016Z,12.07
2022-10-13T21:53:41.260Z,12.30
2022-10-13T21:56:08.969Z,13.63
2022-10-13T21:58:36.118Z,15.87
2022-10-13T22:01:03.807Z,18.43
2022-10-13T22:03:31.119Z,17.93
2022-10-13T22:05:58.221Z,17.83
2022-10-13T22:08:37.526Z,21.67
2022-10-13T22:11:05.442Z,19.87
2022-10-13T22:13:32.851Z,22.20
2022-10-13T22:16:04.417Z,22.03
2022-10-13T22:18:31.543Z,21.70
2022-10-13T22:21:05.856Z,19.93
2022-10-13T22:23:33.260Z,20.73
2022-10-13T22:26:00.574Z,21.27
2022-10-13T22:28:27.729Z,19.87
2022-10-13T22:30:54.861Z,20.00
2022-10-13T22:33:21.975Z,18.87
2022-10-13T22:35:49.121Z,18.67
2022-10-13T22:38:16.318Z,18.97
2022-10-13T22:40:43.404Z,17.97
2022-10-13T22:43:10.511Z,19.73
2022-10-13T22:45:37.599Z,19.57
2022-10-13T22:48:04.832Z,18.57
2022-10-13T22:50:31.900Z,17.93
2022-10-13T22:52:59.033Z,17.57
2022-10-13T22:55:26.143Z,18.53
2022-10-13T22:57:53.323Z,18.87
2022-10-13T23:00:20.546Z,18.37
2022-10-13T23:02:47.696Z,19.37
2022-10-13T23:05:14.886Z,19.90
2022-10-13T23:07:41.994Z,20.10
2022-10-13T23:10:09.314Z,20.83
2022-10-13T23:12:36.465Z,20.10
2022-10-13T23:15:03.608Z,20.20
2022-10-13T23:17:30.777Z,22.33
2022-10-13T23:19:57.897Z,22.03
2022-10-13T23:22:25.149Z,21.93
2022-10-13T23:24:52.269Z,22.63
2022-10-13T23:27:19.729Z,23.43
2022-10-13T23:29:47.043Z,23.10
2022-10-13T23:32:14.108Z,22.67
2022-10-13T23:34:41.180Z,22.70
2022-10-13T23:37:08.277Z,23.20
2022-10-13T23:39:35.386Z,22.63
2022-10-13T23:42:02.469Z,23.10
2022-10-13T23:44:29.973Z,21.87
2022-10-13T23:46:57.114Z,21.80
2022-10-13T23:49:24.186Z,20.87
2022-10-13T23:51:51.282Z,22.27
2022-10-13T23:54:18.521Z,21.57
2022-10-13T23:56:45.604Z,22.23
2022-10-13T23:59:12.679Z,22.83
